sensor_id;sensor_type;location;lat;lon;timestamp;P1;durP1;ratioP1;P2;durP2;ratioP2
5869;SDS011;2961;47.702;9.410;2024-03-23T00:54:09;6.20;;;4.40;;
5869;SDS011;2961;47.702;9.410;2024-03-23T00:56:34;6.57;;;4.33;;
5869;SDS011;2961;47.702;9.410;2024-03-23T00:59:01;5.27;;;4.77;;
5869;SDS011;2961;47.702;9.410;2024-03-23T01:01:27;5.30;;;4.80;;
5869;SDS011;2961;47.702;9.410;2024-03-23T01:03:54;5.93;;;5.43;;
5869;SDS011;2961;47.702;9.410;2024-03-23T01:06:20;8.43;;;4.27;;
5869;SDS011;2961;47.702;9.410;2024-03-23T01:08:46;5.27;;;4.77;;
5869;SDS011;2961;47.702;9.410;2024-03-23T01:11:14;7.67;;;4.37;;
5869;SDS011;2961;47.702;9.410;2024-03-23T01:13:40;7.87;;;4.23;;
5869;SDS011;2961;47.702;9.410;2024-03-23T01:16:06;6.73;;;5.63;;
5869;SDS011;2961;47.702;9.410;2024-03-23T01:18:33;15.67;;;5.40;;
5869;SDS011;2961;47.702;9.410;2024-03-23T01:20:59;10.80;;;5.13;;
5869;SDS011;2961;47.702;9.410;2024-03-23T01:23:26;4.87;;;4.40;;
5869;SDS011;2961;47.702;9.410;2024-03-23T01:25:52;10.30;;;4.30;;
5869;SDS011;2961;47.702;9.410;2024-03-23T01:28:20;5.17;;;4.67;;
5869;SDS011;2961;47.702;9.410;2024-03-23T01:30:47;5.20;;;4.33;;
5869;SDS011;2961;47.702;9.410;2024-03-23T01:33:14;4.27;;;3.90;;
5869;SDS011;2961;47.702;9.410;2024-03-23T01:35:39;5.90;;;4.63;;
5869;SDS011;2961;47.702;9.410;2024-03-23T01:38:06;8.37;;;5.00;;
5869;SDS011;2961;47.702;9.410;2024-03-23T01:40:32;6.83;;;4.40;;
5869;SDS011;2961;47.702;9.410;2024-03-23T01:43:02;5.40;;;4.90;;
5869;SDS011;2961;47.702;9.410;2024-03-23T01:45:31;6.87;;;4.97;;
5869;SDS011;2961;47.702;9.410;2024-03-23T01:47:58;7.40;;;5.70;;
5869;SDS011;2961;47.702;9.410;2024-03-23T01:50:24;9.00;;;5.83;;
5869;SDS011;2961;47.702;9.410;2024-03-23T01:52:52;6.87;;;5.07;;
5869;SDS011;2961;47.702;9.410;2024-03-23T01:55:18;6.33;;;5.50;;
5869;SDS011;2961;47.702;9.410;2024-03-23T01:57:45;6.03;;;5.07;;
5869;SDS011;2961;47.702;9.410;2024-03-23T02:00:11;16.93;;;5.57;;
5869;SDS011;2961;47.702;9.410;2024-03-23T02:02:42;5.67;;;5.00;;
5869;SDS011;2961;47.702;9.410;2024-03-23T02:05:09;5.03;;;4.13;;
5869;SDS011;2961;47.702;9.410;2024-03-23T02:07:36;4.67;;;4.23;;
5869;SDS011;2961;47.702;9.410;2024-03-23T02:10:03;9.53;;;4.80;;
5869;SDS011;2961;47.702;9.410;2024-03-23T02:12:31;5.93;;;4.73;;
5869;SDS011;2961;47.702;9.410;2024-03-23T02:14:57;5.70;;;4.80;;
5869;SDS011;2961;47.702;9.410;2024-03-23T02:17:23;6.30;;;4.53;;
5869;SDS011;2961;47.702;9.410;2024-03-23T02:19:51;7.60;;;5.40;;
5869;SDS011;2961;47.702;9.410;2024-03-23T02:22:18;11.67;;;5.40;;
5869;SDS011;2961;47.702;9.410;2024-03-23T02:24:45;5.03;;;4.60;;
5869;SDS011;2961;47.702;9.410;2024-03-23T02:27:12;4.93;;;4.50;;
5869;SDS011;2961;47.702;9.410;2024-03-23T02:29:38;5.17;;;4.70;;
5869;SDS011;2961;47.702;9.410;2024-03-23T02:32:05;6.80;;;5.33;;
5869;SDS011;2961;47.702;9.410;2024-03-23T02:34:31;5.37;;;4.60;;
5869;SDS011;2961;47.702;9.410;2024-03-23T02:36:58;7.10;;;4.50;;
5869;SDS011;2961;47.702;9.410;2024-03-23T02:39:23;4.50;;;4.20;;
5869;SDS011;2961;47.702;9.410;2024-03-23T02:41:52;4.47;;;4.07;;
5869;SDS011;2961;47.702;9.410;2024-03-23T02:44:17;5.53;;;4.90;;
5869;SDS011;2961;47.702;9.410;2024-03-23T02:46:44;7.13;;;4.87;;
5869;SDS011;2961;47.702;9.410;2024-03-23T02:49:10;5.30;;;4.80;;
5869;SDS011;2961;47.702;9.410;2024-03-23T02:51:37;5.00;;;4.60;;
5869;SDS011;2961;47.702;9.410;2024-03-23T02:54:02;5.13;;;4.83;;
5869;SDS011;2961;47.702;9.410;2024-03-23T02:56:29;5.40;;;4.97;;
5869;SDS011;2961;47.702;9.410;2024-03-23T02:58:59;6.70;;;6.00;;
5869;SDS011;2961;47.702;9.410;2024-03-23T03:01:26;6.23;;;5.67;;
5869;SDS011;2961;47.702;9.410;2024-03-23T03:03:52;6.20;;;4.87;;
5869;SDS011;2961;47.702;9.410;2024-03-23T03:06:25;8.90;;;6.30;;
5869;SDS011;2961;47.702;9.410;2024-03-23T03:08:51;6.67;;;5.80;;
5869;SDS011;2961;47.702;9.410;2024-03-23T03:11:18;6.33;;;5.57;;
5869;SDS011;2961;47.702;9.410;2024-03-23T03:13:44;7.30;;;5.40;;
5869;SDS011;2961;47.702;9.410;2024-03-23T03:16:12;5.57;;;5.07;;
5869;SDS011;2961;47.702;9.410;2024-03-23T03:18:38;7.60;;;4.80;;
5869;SDS011;2961;47.702;9.410;2024-03-23T03:21:05;5.77;;;5.30;;
5869;SDS011;2961;47.702;9.410;2024-03-23T03:23:35;6.23;;;5.10;;
5869;SDS011;2961;47.702;9.410;2024-03-23T03:26:03;5.23;;;4.73;;
5869;SDS011;2961;47.702;9.410;2024-03-23T03:28:28;16.50;;;5.97;;
5869;SDS011;2961;47.702;9.410;2024-03-23T03:30:56;6.40;;;5.80;;
5869;SDS011;2961;47.702;9.410;2024-03-23T03:33:23;7.57;;;6.40;;
5869;SDS011;2961;47.702;9.410;2024-03-23T03:35:50;10.87;;;5.57;;
5869;SDS011;2961;47.702;9.410;2024-03-23T03:38:17;5.63;;;5.07;;
5869;SDS011;2961;47.702;9.410;2024-03-23T03:40:44;6.40;;;5.43;;
5869;SDS011;2961;47.702;9.410;2024-03-23T03:43:10;14.17;;;5.57;;
5869;SDS011;2961;47.702;9.410;2024-03-23T03:45:37;5.70;;;5.10;;
5869;SDS011;2961;47.702;9.410;2024-03-23T03:48:03;5.53;;;5.10;;
5869;SDS011;2961;47.702;9.410;2024-03-23T03:50:31;5.23;;;4.73;;
5869;SDS011;2961;47.702;9.410;2024-03-23T03:52:57;4.63;;;4.30;;
5869;SDS011;2961;47.702;9.410;2024-03-23T03:55:24;5.60;;;4.97;;
5869;SDS011;2961;47.702;9.410;2024-03-23T03:57:50;9.10;;;5.90;;
5869;SDS011;2961;47.702;9.410;2024-03-23T04:00:17;7.20;;;6.50;;
5869;SDS011;2961;47.702;9.410;2024-03-23T04:02:43;11.30;;;5.87;;
5869;SDS011;2961;47.702;9.410;2024-03-23T04:05:10;7.53;;;4.87;;
5869;SDS011;2961;47.702;9.410;2024-03-23T04:07:37;7.17;;;5.50;;
5869;SDS011;2961;47.702;9.410;2024-03-23T04:10:05;7.60;;;4.83;;
5869;SDS011;2961;47.702;9.410;2024-03-23T04:12:32;7.13;;;5.50;;
5869;SDS011;2961;47.702;9.410;2024-03-23T04:14:59;6.87;;;5.93;;
5869;SDS011;2961;47.702;9.410;2024-03-23T04:17:26;8.03;;;5.70;;
5869;SDS011;2961;47.702;9.410;2024-03-23T04:19:56;5.73;;;5.23;;
5869;SDS011;2961;47.702;9.410;2024-03-23T04:22:22;6.30;;;5.20;;
5869;SDS011;2961;47.702;9.410;2024-03-23T04:24:52;9.60;;;5.47;;
5869;SDS011;2961;47.702;9.410;2024-03-23T04:27:18;7.83;;;5.63;;
5869;SDS011;2961;47.702;9.410;2024-03-23T04:29:46;10.50;;;5.30;;
5869;SDS011;2961;47.702;9.410;2024-03-23T04:32:13;6.77;;;5.37;;
5869;SDS011;2961;47.702;9.410;2024-03-23T04:34:40;8.00;;;5.33;;
5869;SDS011;2961;47.702;9.410;2024-03-23T04:37:06;7.50;;;5.17;;
5869;SDS011;2961;47.702;9.410;2024-03-23T04:39:33;8.47;;;5.17;;
5869;SDS011;2961;47.702;9.410;2024-03-23T04:42:01;6.20;;;4.90;;
5869;SDS011;2961;47.702;9.410;2024-03-23T04:44:28;8.00;;;5.50;;
5869;SDS011;2961;47.702;9.410;2024-03-23T04:46:55;5.93;;;4.90;;
5869;SDS011;2961;47.702;9.410;2024-03-23T04:49:22;4.50;;;4.10;;
5869;SDS011;2961;47.702;9.410;2024-03-23T04:51:49;5.17;;;4.43;;
5869;SDS011;2961;47.702;9.410;2024-03-23T04:54:16;6.80;;;5.67;;
5869;SDS011;2961;47.702;9.410;2024-03-23T04:56:43;9.07;;;4.60;;
5869;SDS011;2961;47.702;9.410;2024-03-23T04:59:11;6.90;;;5.03;;
5869;SDS011;2961;47.702;9.410;2024-03-23T05:01:36;10.43;;;5.60;;
5869;SDS011;2961;47.702;9.410;2024-03-23T05:04:07;4.83;;;4.00;;
5869;SDS011;2961;47.702;9.410;2024-03-23T05:06:32;7.47;;;5.40;;
5869;SDS011;2961;47.702;9.410;2024-03-23T05:09:00;7.33;;;4.87;;
5869;SDS011;2961;47.702;9.410;2024-03-23T05:11:27;6.90;;;5.33;;
5869;SDS011;2961;47.702;9.410;2024-03-23T05:13:53;6.00;;;5.40;;
5869;SDS011;2961;47.702;9.410;2024-03-23T05:16:21;5.03;;;4.53;;
5869;SDS011;2961;47.702;9.410;2024-03-23T05:18:47;4.50;;;4.00;;
5869;SDS011;2961;47.702;9.410;2024-03-23T05:21:13;5.83;;;4.90;;
5869;SDS011;2961;47.702;9.410;2024-03-23T05:23:40;4.90;;;4.27;;
5869;SDS011;2961;47.702;9.410;2024-03-23T05:26:08;5.17;;;4.67;;
5869;SDS011;2961;47.702;9.410;2024-03-23T05:28:35;5.53;;;4.73;;
5869;SDS011;2961;47.702;9.410;2024-03-23T05:31:01;7.63;;;4.93;;
5869;SDS011;2961;47.702;9.410;2024-03-23T05:33:30;6.87;;;5.83;;
5869;SDS011;2961;47.702;9.410;2024-03-23T05:35:56;9.10;;;6.10;;
5869;SDS011;2961;47.702;9.410;2024-03-23T05:38:23;9.03;;;5.80;;
5869;SDS011;2961;47.702;9.410;2024-03-23T05:40:53;5.47;;;4.97;;
5869;SDS011;2961;47.702;9.410;2024-03-23T05:43:20;6.90;;;4.20;;
5869;SDS011;2961;47.702;9.410;2024-03-23T05:45:46;12.33;;;5.07;;
5869;SDS011;2961;47.702;9.410;2024-03-23T05:48:19;5.73;;;4.17;;
5869;SDS011;2961;47.702;9.410;2024-03-23T05:50:46;8.53;;;3.90;;
5869;SDS011;2961;47.702;9.410;2024-03-23T05:53:13;10.10;;;6.27;;
5869;SDS011;2961;47.702;9.410;2024-03-23T05:55:40;12.90;;;8.17;;
5869;SDS011;2961;47.702;9.410;2024-03-23T05:58:07;23.73;;;9.40;;
5869;SDS011;2961;47.702;9.410;2024-03-23T06:00:33;21.10;;;9.07;;
5869;SDS011;2961;47.702;9.410;2024-03-23T06:03:00;11.90;;;7.33;;
5869;SDS011;2961;47.702;9.410;2024-03-23T06:05:26;10.00;;;5.70;;
5869;SDS011;2961;47.702;9.410;2024-03-23T06:07:54;4.20;;;3.90;;
5869;SDS011;2961;47.702;9.410;2024-03-23T06:10:20;4.23;;;3.90;;
5869;SDS011;2961;47.702;9.410;2024-03-23T06:12:46;7.60;;;4.53;;
5869;SDS011;2961;47.702;9.410;2024-03-23T06:15:14;3.60;;;3.37;;
5869;SDS011;2961;47.702;9.410;2024-03-23T06:17:41;4.30;;;3.90;;
5869;SDS011;2961;47.702;9.410;2024-03-23T06:20:07;5.17;;;4.00;;
5869;SDS011;2961;47.702;9.410;2024-03-23T06:22:35;5.60;;;4.20;;
5869;SDS011;2961;47.702;9.410;2024-03-23T06:25:02;4.23;;;3.83;;
5869;SDS011;2961;47.702;9.410;2024-03-23T06:27:29;4.20;;;3.63;;
5869;SDS011;2961;47.702;9.410;2024-03-23T06:29:57;7.03;;;3.70;;
5869;SDS011;2961;47.702;9.410;2024-03-23T06:32:23;3.33;;;3.13;;
5869;SDS011;2961;47.702;9.410;2024-03-23T06:34:49;3.47;;;3.17;;
5869;SDS011;2961;47.702;9.410;2024-03-23T06:37:16;7.00;;;3.43;;
5869;SDS011;2961;47.702;9.410;2024-03-23T06:39:42;3.87;;;3.57;;
5869;SDS011;2961;47.702;9.410;2024-03-23T06:42:10;3.17;;;2.90;;
5869;SDS011;2961;47.702;9.410;2024-03-23T06:44:36;4.47;;;3.57;;
5869;SDS011;2961;47.702;9.410;2024-03-23T06:47:03;6.63;;;3.57;;
5869;SDS011;2961;47.702;9.410;2024-03-23T06:49:29;3.90;;;3.53;;
5869;SDS011;2961;47.702;9.410;2024-03-23T06:51:55;3.70;;;3.40;;
5869;SDS011;2961;47.702;9.410;2024-03-23T06:54:21;4.13;;;3.73;;
5869;SDS011;2961;47.702;9.410;2024-03-23T06:56:48;3.90;;;3.60;;
5869;SDS011;2961;47.702;9.410;2024-03-23T06:59:15;5.17;;;4.60;;
5869;SDS011;2961;47.702;9.410;2024-03-23T07:01:42;6.40;;;4.10;;
5869;SDS011;2961;47.702;9.410;2024-03-23T07:04:08;5.10;;;4.13;;
5869;SDS011;2961;47.702;9.410;2024-03-23T07:06:41;4.50;;;4.10;;
5869;SDS011;2961;47.702;9.410;2024-03-23T07:09:08;4.03;;;3.67;;
5869;SDS011;2961;47.702;9.410;2024-03-23T07:11:35;4.80;;;3.93;;
5869;SDS011;2961;47.702;9.410;2024-03-23T07:14:00;5.80;;;3.83;;
5869;SDS011;2961;47.702;9.410;2024-03-23T07:16:29;5.33;;;4.00;;
5869;SDS011;2961;47.702;9.410;2024-03-23T07:18:55;3.73;;;3.00;;
5869;SDS011;2961;47.702;9.410;2024-03-23T07:21:21;6.20;;;4.20;;
5869;SDS011;2961;47.702;9.410;2024-03-23T07:23:47;4.10;;;3.70;;
5869;SDS011;2961;47.702;9.410;2024-03-23T07:26:14;4.00;;;3.43;;
5869;SDS011;2961;47.702;9.410;2024-03-23T07:28:40;4.87;;;3.90;;
5869;SDS011;2961;47.702;9.410;2024-03-23T07:31:09;2.97;;;2.77;;
5869;SDS011;2961;47.702;9.410;2024-03-23T07:33:37;5.63;;;3.80;;
5869;SDS011;2961;47.702;9.410;2024-03-23T07:36:08;6.23;;;4.27;;
5869;SDS011;2961;47.702;9.410;2024-03-23T07:38:34;3.60;;;3.40;;
5869;SDS011;2961;47.702;9.410;2024-03-23T07:41:04;4.30;;;3.90;;
5869;SDS011;2961;47.702;9.410;2024-03-23T07:43:30;6.20;;;4.20;;
5869;SDS011;2961;47.702;9.410;2024-03-23T07:45:57;4.00;;;3.70;;
5869;SDS011;2961;47.702;9.410;2024-03-23T07:48:23;8.37;;;3.70;;
5869;SDS011;2961;47.702;9.410;2024-03-23T07:51:02;3.60;;;3.30;;
5869;SDS011;2961;47.702;9.410;2024-03-23T07:53:29;3.50;;;3.30;;
5869;SDS011;2961;47.702;9.410;2024-03-23T07:55:57;4.70;;;4.07;;
5869;SDS011;2961;47.702;9.410;2024-03-23T07:58:23;5.13;;;3.90;;
5869;SDS011;2961;47.702;9.410;2024-03-23T08:00:51;5.13;;;3.70;;
5869;SDS011;2961;47.702;9.410;2024-03-23T08:03:17;3.70;;;3.40;;
5869;SDS011;2961;47.702;9.410;2024-03-23T08:05:44;3.30;;;3.00;;
5869;SDS011;2961;47.702;9.410;2024-03-23T08:08:12;5.60;;;4.63;;
5869;SDS011;2961;47.702;9.410;2024-03-23T08:10:47;4.30;;;4.00;;
5869;SDS011;2961;47.702;9.410;2024-03-23T08:13:13;4.77;;;4.40;;
5869;SDS011;2961;47.702;9.410;2024-03-23T08:15:40;5.80;;;5.30;;
5869;SDS011;2961;47.702;9.410;2024-03-23T08:18:06;4.60;;;4.17;;
5869;SDS011;2961;47.702;9.410;2024-03-23T08:20:33;5.00;;;4.20;;
5869;SDS011;2961;47.702;9.410;2024-03-23T08:22:59;4.57;;;4.17;;
5869;SDS011;2961;47.702;9.410;2024-03-23T08:25:27;4.83;;;4.43;;
5869;SDS011;2961;47.702;9.410;2024-03-23T08:27:55;4.17;;;3.87;;
5869;SDS011;2961;47.702;9.410;2024-03-23T08:30:22;3.20;;;3.00;;
5869;SDS011;2961;47.702;9.410;2024-03-23T08:32:48;1.40;;;1.30;;
5869;SDS011;2961;47.702;9.410;2024-03-23T08:35:15;2.03;;;1.47;;
5869;SDS011;2961;47.702;9.410;2024-03-23T08:37:41;1.70;;;1.53;;
5869;SDS011;2961;47.702;9.410;2024-03-23T08:40:08;1.93;;;1.10;;
5869;SDS011;2961;47.702;9.410;2024-03-23T08:42:36;1.33;;;1.23;;
5869;SDS011;2961;47.702;9.410;2024-03-23T08:45:03;0.70;;;0.70;;
5869;SDS011;2961;47.702;9.410;2024-03-23T08:47:29;0.60;;;0.60;;
5869;SDS011;2961;47.702;9.410;2024-03-23T08:49:56;0.60;;;0.60;;
5869;SDS011;2961;47.702;9.410;2024-03-23T08:52:23;0.40;;;0.40;;
5869;SDS011;2961;47.702;9.410;2024-03-23T08:54:52;0.80;;;0.80;;
5869;SDS011;2961;47.702;9.410;2024-03-23T08:57:18;0.70;;;0.50;;
5869;SDS011;2961;47.702;9.410;2024-03-23T08:59:46;0.40;;;0.40;;
5869;SDS011;2961;47.702;9.410;2024-03-23T09:02:12;0.30;;;0.30;;
5869;SDS011;2961;47.702;9.410;2024-03-23T09:04:38;0.60;;;0.60;;
5869;SDS011;2961;47.702;9.410;2024-03-23T09:07:04;1.00;;;0.57;;
5869;SDS011;2961;47.702;9.410;2024-03-23T09:09:31;0.93;;;0.80;;
5869;SDS011;2961;47.702;9.410;2024-03-23T09:11:57;0.60;;;0.60;;
5869;SDS011;2961;47.702;9.410;2024-03-23T09:14:24;0.60;;;0.60;;
5869;SDS011;2961;47.702;9.410;2024-03-23T09:16:51;0.80;;;0.80;;
5869;SDS011;2961;47.702;9.410;2024-03-23T09:19:18;0.60;;;0.60;;
5869;SDS011;2961;47.702;9.410;2024-03-23T09:21:43;1.27;;;0.90;;
5869;SDS011;2961;47.702;9.410;2024-03-23T09:24:10;3.47;;;2.83;;
5869;SDS011;2961;47.702;9.410;2024-03-23T09:26:36;1.30;;;1.30;;
5869;SDS011;2961;47.702;9.410;2024-03-23T09:29:03;2.33;;;1.67;;
5869;SDS011;2961;47.702;9.410;2024-03-23T09:31:29;1.50;;;0.93;;
5869;SDS011;2961;47.702;9.410;2024-03-23T09:33:57;2.53;;;2.27;;
5869;SDS011;2961;47.702;9.410;2024-03-23T09:36:23;1.00;;;1.00;;
5869;SDS011;2961;47.702;9.410;2024-03-23T09:38:50;1.70;;;1.60;;
5869;SDS011;2961;47.702;9.410;2024-03-23T09:41:16;0.33;;;0.33;;
5869;SDS011;2961;47.702;9.410;2024-03-23T09:43:44;0.83;;;0.77;;
5869;SDS011;2961;47.702;9.410;2024-03-23T09:46:11;0.40;;;0.40;;
5869;SDS011;2961;47.702;9.410;2024-03-23T09:48:38;0.53;;;0.53;;
5869;SDS011;2961;47.702;9.410;2024-03-23T09:51:05;0.60;;;0.60;;
5869;SDS011;2961;47.702;9.410;2024-03-23T09:53:33;0.70;;;0.70;;
5869;SDS011;2961;47.702;9.410;2024-03-23T09:55:59;1.80;;;0.40;;
5869;SDS011;2961;47.702;9.410;2024-03-23T09:58:26;0.50;;;0.50;;
5869;SDS011;2961;47.702;9.410;2024-03-23T10:00:51;3.40;;;2.90;;
5869;SDS011;2961;47.702;9.410;2024-03-23T10:03:18;2.87;;;2.03;;
5869;SDS011;2961;47.702;9.410;2024-03-23T10:05:44;1.60;;;1.50;;
5869;SDS011;2961;47.702;9.410;2024-03-23T10:08:18;3.07;;;2.20;;
5869;SDS011;2961;47.702;9.410;2024-03-23T10:10:45;0.93;;;0.93;;
5869;SDS011;2961;47.702;9.410;2024-03-23T10:13:23;1.20;;;1.10;;
5869;SDS011;2961;47.702;9.410;2024-03-23T10:15:54;1.03;;;0.87;;
5869;SDS011;2961;47.702;9.410;2024-03-23T10:18:21;1.17;;;0.70;;
5869;SDS011;2961;47.702;9.410;2024-03-23T10:20:50;1.50;;;1.50;;
5869;SDS011;2961;47.702;9.410;2024-03-23T10:23:19;10.10;;;1.10;;
5869;SDS011;2961;47.702;9.410;2024-03-23T10:25:45;0.87;;;0.80;;
5869;SDS011;2961;47.702;9.410;2024-03-23T10:28:11;1.97;;;1.30;;
5869;SDS011;2961;47.702;9.410;2024-03-23T10:30:38;4.80;;;1.43;;
5869;SDS011;2961;47.702;9.410;2024-03-23T10:33:08;2.50;;;1.00;;
5869;SDS011;2961;47.702;9.410;2024-03-23T10:35:34;2.50;;;1.00;;
5869;SDS011;2961;47.702;9.410;2024-03-23T10:41:03;2.78;;;1.45;;
5869;SDS011;2961;47.702;9.410;2024-03-23T10:43:30;3.33;;;1.07;;
5869;SDS011;2961;47.702;9.410;2024-03-23T10:45:58;1.13;;;1.13;;
5869;SDS011;2961;47.702;9.410;2024-03-23T10:48:25;1.70;;;1.00;;
5869;SDS011;2961;47.702;9.410;2024-03-23T10:50:50;6.33;;;1.53;;
5869;SDS011;2961;47.702;9.410;2024-03-23T10:53:19;2.40;;;1.90;;
5869;SDS011;2961;47.702;9.410;2024-03-23T10:55:47;3.30;;;1.67;;
5869;SDS011;2961;47.702;9.410;2024-03-23T10:58:16;6.07;;;3.97;;
5869;SDS011;2961;47.702;9.410;2024-03-23T11:00:45;1.20;;;1.10;;
5869;SDS011;2961;47.702;9.410;2024-03-23T11:05:56;2.10;;;1.57;;
5869;SDS011;2961;47.702;9.410;2024-03-23T11:08:30;2.23;;;1.80;;
5869;SDS011;2961;47.702;9.410;2024-03-23T11:13:50;3.53;;;2.20;;
5869;SDS011;2961;47.702;9.410;2024-03-23T11:16:17;11.97;;;4.47;;
5869;SDS011;2961;47.702;9.410;2024-03-23T11:18:48;8.60;;;2.87;;
5869;SDS011;2961;47.702;9.410;2024-03-23T11:24:15;3.93;;;0.80;;
5869;SDS011;2961;47.702;9.410;2024-03-23T11:26:41;2.50;;;0.97;;
5869;SDS011;2961;47.702;9.410;2024-03-23T11:29:10;3.40;;;1.17;;
5869;SDS011;2961;47.702;9.410;2024-03-23T11:31:36;7.10;;;2.20;;
5869;SDS011;2961;47.702;9.410;2024-03-23T11:34:03;1.40;;;1.30;;
5869;SDS011;2961;47.702;9.410;2024-03-23T11:36:30;15.63;;;3.70;;
5869;SDS011;2961;47.702;9.410;2024-03-23T11:38:56;13.27;;;3.73;;
5869;SDS011;2961;47.702;9.410;2024-03-23T11:41:22;7.67;;;3.00;;
5869;SDS011;2961;47.702;9.410;2024-03-23T11:43:49;4.53;;;0.83;;
5869;SDS011;2961;47.702;9.410;2024-03-23T11:46:23;14.27;;;4.80;;
5869;SDS011;2961;47.702;9.410;2024-03-23T11:48:49;2.97;;;1.90;;
5869;SDS011;2961;47.702;9.410;2024-03-23T11:51:16;1.60;;;1.30;;
5869;SDS011;2961;47.702;9.410;2024-03-23T11:53:43;3.27;;;1.10;;
5869;SDS011;2961;47.702;9.410;2024-03-23T11:56:09;2.97;;;1.00;;
5869;SDS011;2961;47.702;9.410;2024-03-23T11:58:36;7.20;;;1.57;;
5869;SDS011;2961;47.702;9.410;2024-03-23T12:01:02;5.93;;;2.23;;
5869;SDS011;2961;47.702;9.410;2024-03-23T12:03:31;6.83;;;2.77;;
5869;SDS011;2961;47.702;9.410;2024-03-23T12:05:58;9.67;;;1.80;;
5869;SDS011;2961;47.702;9.410;2024-03-23T12:08:28;5.90;;;2.03;;
5869;SDS011;2961;47.702;9.410;2024-03-23T12:11:04;4.10;;;1.40;;
5869;SDS011;2961;47.702;9.410;2024-03-23T12:13:32;5.20;;;1.60;;
5869;SDS011;2961;47.702;9.410;2024-03-23T12:16:09;3.43;;;1.33;;
5869;SDS011;2961;47.702;9.410;2024-03-23T12:18:38;2.50;;;1.30;;
5869;SDS011;2961;47.702;9.410;2024-03-23T12:21:05;13.83;;;2.80;;
5869;SDS011;2961;47.702;9.410;2024-03-23T12:23:33;6.40;;;1.70;;
5869;SDS011;2961;47.702;9.410;2024-03-23T12:26:00;8.43;;;2.83;;
5869;SDS011;2961;47.702;9.410;2024-03-23T12:28:27;7.63;;;2.40;;
5869;SDS011;2961;47.702;9.410;2024-03-23T12:30:53;9.07;;;1.90;;
5869;SDS011;2961;47.702;9.410;2024-03-23T12:33:20;5.40;;;2.03;;
5869;SDS011;2961;47.702;9.410;2024-03-23T12:35:47;5.10;;;1.60;;
5869;SDS011;2961;47.702;9.410;2024-03-23T12:38:14;10.23;;;1.63;;
5869;SDS011;2961;47.702;9.410;2024-03-23T12:40:40;7.47;;;1.83;;
5869;SDS011;2961;47.702;9.410;2024-03-23T12:43:07;4.07;;;1.33;;
5869;SDS011;2961;47.702;9.410;2024-03-23T12:45:33;6.13;;;2.13;;
5869;SDS011;2961;47.702;9.410;2024-03-23T12:48:00;2.67;;;1.13;;
5869;SDS011;2961;47.702;9.410;2024-03-23T12:50:25;12.80;;;2.10;;
5869;SDS011;2961;47.702;9.410;2024-03-23T12:52:54;5.87;;;1.57;;
5869;SDS011;2961;47.702;9.410;2024-03-23T12:55:20;3.03;;;1.53;;
5869;SDS011;2961;47.702;9.410;2024-03-23T12:57:47;5.00;;;1.87;;
5869;SDS011;2961;47.702;9.410;2024-03-23T13:00:13;6.50;;;1.40;;
5869;SDS011;2961;47.702;9.410;2024-03-23T13:02:41;8.33;;;1.30;;
5869;SDS011;2961;47.702;9.410;2024-03-23T13:05:07;2.87;;;1.30;;
5869;SDS011;2961;47.702;9.410;2024-03-23T13:07:35;11.23;;;1.63;;
5869;SDS011;2961;47.702;9.410;2024-03-23T13:10:04;4.13;;;1.33;;
5869;SDS011;2961;47.702;9.410;2024-03-23T13:12:31;1.10;;;0.73;;
5869;SDS011;2961;47.702;9.410;2024-03-23T13:14:58;2.60;;;0.77;;
5869;SDS011;2961;47.702;9.410;2024-03-23T13:17:25;4.53;;;0.90;;
5869;SDS011;2961;47.702;9.410;2024-03-23T13:19:52;1.33;;;0.67;;
5869;SDS011;2961;47.702;9.410;2024-03-23T13:22:18;0.60;;;0.60;;
5869;SDS011;2961;47.702;9.410;2024-03-23T13:24:44;0.80;;;0.80;;
5869;SDS011;2961;47.702;9.410;2024-03-23T13:27:12;1.00;;;0.67;;
5869;SDS011;2961;47.702;9.410;2024-03-23T13:29:38;1.10;;;0.70;;
5869;SDS011;2961;47.702;9.410;2024-03-23T13:32:05;0.53;;;0.50;;
5869;SDS011;2961;47.702;9.410;2024-03-23T13:34:32;4.73;;;0.80;;
5869;SDS011;2961;47.702;9.410;2024-03-23T13:37:00;0.50;;;0.50;;
5869;SDS011;2961;47.702;9.410;2024-03-23T13:39:26;0.70;;;0.60;;
5869;SDS011;2961;47.702;9.410;2024-03-23T13:41:53;1.17;;;1.08;;
5869;SDS011;2961;47.702;9.410;2024-03-23T13:44:21;1.23;;;0.57;;
5869;SDS011;2961;47.702;9.410;2024-03-23T13:46:48;1.37;;;0.77;;
5869;SDS011;2961;47.702;9.410;2024-03-23T13:49:19;4.53;;;1.87;;
5869;SDS011;2961;47.702;9.410;2024-03-23T13:51:51;1.50;;;0.90;;
5869;SDS011;2961;47.702;9.410;2024-03-23T13:54:17;1.03;;;0.80;;
5869;SDS011;2961;47.702;9.410;2024-03-23T13:56:44;2.00;;;0.73;;
5869;SDS011;2961;47.702;9.410;2024-03-23T13:59:10;2.30;;;0.50;;
5869;SDS011;2961;47.702;9.410;2024-03-23T14:01:38;5.60;;;0.87;;
5869;SDS011;2961;47.702;9.410;2024-03-23T14:04:04;1.17;;;0.50;;
5869;SDS011;2961;47.702;9.410;2024-03-23T14:06:31;1.90;;;1.00;;
5869;SDS011;2961;47.702;9.410;2024-03-23T14:08:58;7.17;;;1.23;;
5869;SDS011;2961;47.702;9.410;2024-03-23T14:11:25;4.97;;;0.93;;
5869;SDS011;2961;47.702;9.410;2024-03-23T14:13:51;6.80;;;1.10;;
5869;SDS011;2961;47.702;9.410;2024-03-23T14:16:19;2.07;;;1.13;;
5869;SDS011;2961;47.702;9.410;2024-03-23T14:18:47;2.47;;;1.03;;
5869;SDS011;2961;47.702;9.410;2024-03-23T14:21:14;2.93;;;1.10;;
5869;SDS011;2961;47.702;9.410;2024-03-23T14:23:40;1.47;;;1.10;;
5869;SDS011;2961;47.702;9.410;2024-03-23T14:26:07;3.43;;;0.90;;
5869;SDS011;2961;47.702;9.410;2024-03-23T14:28:33;5.10;;;1.10;;
5869;SDS011;2961;47.702;9.410;2024-03-23T14:31:00;3.50;;;1.10;;
5869;SDS011;2961;47.702;9.410;2024-03-23T14:33:26;8.60;;;1.37;;
5869;SDS011;2961;47.702;9.410;2024-03-23T14:35:54;5.43;;;0.87;;
5869;SDS011;2961;47.702;9.410;2024-03-23T14:38:20;1.90;;;0.80;;
5869;SDS011;2961;47.702;9.410;2024-03-23T14:40:47;9.23;;;2.30;;
5869;SDS011;2961;47.702;9.410;2024-03-23T14:43:13;11.53;;;1.23;;
5869;SDS011;2961;47.702;9.410;2024-03-23T14:45:45;8.40;;;1.90;;
5869;SDS011;2961;47.702;9.410;2024-03-23T14:48:29;1.13;;;1.00;;
5869;SDS011;2961;47.702;9.410;2024-03-23T14:50:58;4.30;;;0.90;;
5869;SDS011;2961;47.702;9.410;2024-03-23T14:53:24;3.90;;;1.00;;
5869;SDS011;2961;47.702;9.410;2024-03-23T14:55:53;13.90;;;2.03;;
5869;SDS011;2961;47.702;9.410;2024-03-23T14:58:19;3.80;;;1.20;;
5869;SDS011;2961;47.702;9.410;2024-03-23T15:00:47;3.70;;;1.27;;
5869;SDS011;2961;47.702;9.410;2024-03-23T15:03:13;2.40;;;0.93;;
5869;SDS011;2961;47.702;9.410;2024-03-23T15:05:40;1.90;;;1.43;;
5869;SDS011;2961;47.702;9.410;2024-03-23T15:08:08;3.37;;;1.50;;
5869;SDS011;2961;47.702;9.410;2024-03-23T15:10:35;3.33;;;0.93;;
5869;SDS011;2961;47.702;9.410;2024-03-23T15:13:01;5.93;;;1.53;;
5869;SDS011;2961;47.702;9.410;2024-03-23T15:15:28;4.40;;;1.10;;
5869;SDS011;2961;47.702;9.410;2024-03-23T15:17:54;3.97;;;1.00;;
5869;SDS011;2961;47.702;9.410;2024-03-23T15:20:20;4.53;;;1.27;;
5869;SDS011;2961;47.702;9.410;2024-03-23T15:22:46;8.03;;;1.07;;
5869;SDS011;2961;47.702;9.410;2024-03-23T15:25:14;0.90;;;0.70;;
5869;SDS011;2961;47.702;9.410;2024-03-23T15:27:41;1.83;;;0.80;;
5869;SDS011;2961;47.702;9.410;2024-03-23T15:30:08;4.23;;;1.00;;
5869;SDS011;2961;47.702;9.410;2024-03-23T15:32:35;3.27;;;0.97;;
5869;SDS011;2961;47.702;9.410;2024-03-23T15:35:04;5.63;;;1.10;;
5869;SDS011;2961;47.702;9.410;2024-03-23T15:37:32;3.27;;;1.10;;
5869;SDS011;2961;47.702;9.410;2024-03-23T15:39:59;2.33;;;0.97;;
5869;SDS011;2961;47.702;9.410;2024-03-23T15:42:26;7.73;;;1.33;;
5869;SDS011;2961;47.702;9.410;2024-03-23T15:44:53;4.60;;;1.20;;
5869;SDS011;2961;47.702;9.410;2024-03-23T15:47:19;9.23;;;1.53;;
5869;SDS011;2961;47.702;9.410;2024-03-23T15:49:46;11.77;;;1.33;;
5869;SDS011;2961;47.702;9.410;2024-03-23T15:52:12;2.40;;;1.17;;
5869;SDS011;2961;47.702;9.410;2024-03-23T15:54:39;7.03;;;1.13;;
5869;SDS011;2961;47.702;9.410;2024-03-23T15:57:04;7.20;;;1.10;;
5869;SDS011;2961;47.702;9.410;2024-03-23T15:59:33;2.93;;;1.00;;
5869;SDS011;2961;47.702;9.410;2024-03-23T16:01:59;8.63;;;1.80;;
5869;SDS011;2961;47.702;9.410;2024-03-23T16:04:27;2.53;;;0.80;;
5869;SDS011;2961;47.702;9.410;2024-03-23T16:06:53;4.10;;;1.13;;
5869;SDS011;2961;47.702;9.410;2024-03-23T16:09:20;4.53;;;1.10;;
5869;SDS011;2961;47.702;9.410;2024-03-23T16:11:46;4.10;;;1.20;;
5869;SDS011;2961;47.702;9.410;2024-03-23T16:14:13;3.10;;;1.00;;
5869;SDS011;2961;47.702;9.410;2024-03-23T16:16:40;5.30;;;1.20;;
5869;SDS011;2961;47.702;9.410;2024-03-23T16:19:07;4.97;;;1.23;;